createdAt,value
2018-12-02T00:00:18.156Z,8.11
2018-12-02T00:01:18.147Z,8.11
2018-12-02T00:02:18.133Z,8.08
2018-12-02T00:03:18.151Z,8.12
2018-12-02T00:04:18.111Z,8.18
2018-12-02T00:05:18.099Z,8.10
2018-12-02T00:06:18.089Z,8.15
2018-12-02T00:07:18.079Z,8.10
2018-12-02T00:08:18.091Z,8.08
2018-12-02T00:09:18.056Z,7.97
2018-12-02T00:10:18.042Z,8.02
2018-12-02T00:11:18.031Z,8.07
2018-12-02T00:12:18.021Z,8.07
2018-12-02T00:13:18.043Z,8.15
2018-12-02T00:14:18.000Z,8.02
2018-12-02T00:15:17.992Z,8.04
2018-12-02T00:16:17.977Z,8.05
2018-12-02T00:17:17.971Z,8.00
2018-12-02T00:18:17.979Z,8.00
2018-12-02T00:19:17.952Z,8.07
2018-12-02T00:20:17.933Z,7.97
2018-12-02T00:21:17.922Z,8.04
2018-12-02T00:22:17.913Z,8.05
2018-12-02T00:23:17.924Z,8.00
2018-12-02T00:24:17.893Z,8.10
2018-12-02T00:25:17.879Z,8.02
2018-12-02T00:26:17.871Z,8.07
2018-12-02T00:27:17.855Z,8.12
2018-12-02T00:28:17.870Z,8.11
2018-12-02T00:29:17.839Z,8.07
2018-12-02T00:30:17.825Z,8.12
2018-12-02T00:31:17.811Z,8.11
2018-12-02T00:32:17.800Z,8.15
2018-12-02T00:33:17.811Z,8.07
2018-12-02T00:34:17.783Z,8.15
2018-12-02T00:35:17.766Z,8.10
2018-12-02T00:36:17.756Z,8.19
2018-12-02T00:37:17.745Z,8.22
2018-12-02T00:38:17.758Z,8.22
2018-12-02T00:39:17.724Z,8.25
2018-12-02T00:40:18.357Z,8.23
2018-12-02T00:41:18.355Z,8.26
2018-12-02T00:42:17.694Z,8.25
2018-12-02T00:43:18.854Z,8.20
2018-12-02T00:44:18.365Z,8.15
2018-12-02T00:45:17.661Z,8.20
2018-12-02T00:46:17.648Z,8.23
2018-12-02T00:47:17.635Z,8.19
2018-12-02T00:48:17.650Z,8.33
2018-12-02T00:49:17.613Z,8.10
2018-12-02T00:50:17.611Z,8.23
2018-12-02T00:51:17.592Z,8.29
2018-12-02T00:52:17.579Z,8.29
2018-12-02T00:53:17.592Z,8.19
2018-12-02T00:54:17.557Z,8.29
2018-12-02T00:55:17.547Z,8.22
2018-12-02T00:56:17.541Z,8.29
2018-12-02T00:57:17.524Z,8.12
2018-12-02T00:58:17.537Z,8.25
2018-12-02T00:59:17.505Z,8.18
2018-12-02T01:00:17.495Z,8.34
2018-12-02T01:01:17.483Z,8.30
2018-12-02T01:02:17.469Z,8.33
2018-12-02T01:03:17.492Z,8.37
2018-12-02T01:04:17.461Z,8.44
2018-12-02T01:05:17.442Z,8.40
2018-12-02T01:06:17.426Z,8.36
2018-12-02T01:07:17.417Z,8.38
2018-12-02T01:08:17.405Z,8.38
2018-12-02T01:09:17.417Z,8.41
2018-12-02T01:10:17.382Z,8.36
2018-12-02T01:11:17.382Z,8.38
2018-12-02T01:12:17.360Z,8.48
2018-12-02T01:13:17.350Z,8.38
2018-12-02T01:14:17.362Z,8.41
2018-12-02T01:15:17.332Z,8.45
2018-12-02T01:16:17.318Z,8.43
2018-12-02T01:17:17.304Z,8.45
2018-12-02T01:18:17.292Z,8.50
2018-12-02T01:19:17.306Z,8.53
2018-12-02T01:20:17.296Z,8.44
2018-12-02T01:21:17.261Z,8.41
2018-12-02T01:22:17.249Z,8.48
2018-12-02T01:23:17.242Z,8.50
2018-12-02T01:24:17.250Z,8.55
2018-12-02T01:25:17.216Z,8.56
2018-12-02T01:26:17.205Z,8.48
2018-12-02T01:27:17.193Z,8.45
2018-12-02T01:28:17.186Z,8.43
2018-12-02T01:29:17.204Z,8.45
2018-12-02T01:30:17.161Z,8.50
2018-12-02T01:31:17.149Z,8.44
2018-12-02T01:32:17.138Z,8.45
2018-12-02T01:33:17.127Z,8.41
2018-12-02T01:34:17.139Z,8.44
2018-12-02T01:35:17.105Z,8.44
2018-12-02T01:36:17.094Z,8.37
2018-12-02T01:37:17.085Z,8.29
2018-12-02T01:38:17.072Z,8.30
2018-12-02T01:39:17.095Z,8.34
2018-12-02T01:40:17.050Z,8.36
2018-12-02T01:41:17.045Z,8.40
2018-12-02T01:42:17.028Z,8.37
2018-12-02T01:43:17.017Z,8.38
2018-12-02T01:44:17.005Z,8.38
2018-12-02T01:45:17.019Z,8.33
2018-12-02T01:46:16.984Z,8.37
2018-12-02T01:47:16.975Z,8.37
2018-12-02T01:48:16.962Z,8.30
2018-12-02T01:49:16.979Z,8.29
2018-12-02T01:50:16.965Z,8.23
2018-12-02T01:51:16.929Z,8.33
2018-12-02T01:52:16.917Z,8.28
2018-12-02T01:53:16.907Z,8.26
2018-12-02T01:54:16.898Z,8.36
2018-12-02T01:55:16.909Z,8.34
2018-12-02T01:56:16.874Z,8.34
2018-12-02T01:57:16.864Z,8.30
2018-12-02T01:58:16.853Z,8.30
2018-12-02T01:59:16.842Z,8.38
2018-12-02T02:00:16.856Z,8.28
2018-12-02T02:01:16.821Z,8.33
2018-12-02T02:02:16.810Z,8.33
2018-12-02T02:03:16.800Z,8.30
2018-12-02T02:04:16.785Z,8.33
2018-12-02T02:05:16.826Z,8.30
2018-12-02T02:06:16.782Z,8.29
2018-12-02T02:07:16.775Z,8.40
2018-12-02T02:08:16.743Z,8.30
2018-12-02T02:09:16.731Z,8.28
2018-12-02T02:10:16.744Z,8.41
2018-12-02T02:11:16.711Z,8.40
2018-12-02T02:12:16.699Z,8.30
2018-12-02T02:13:16.687Z,8.29
2018-12-02T02:14:16.675Z,8.28
2018-12-02T02:15:17.512Z,8.23
2018-12-02T02:16:16.655Z,8.25
2018-12-02T02:17:16.643Z,8.22
2018-12-02T02:18:16.635Z,8.23
2018-12-02T02:19:16.620Z,8.28
2018-12-02T02:20:16.610Z,8.29
2018-12-02T02:21:16.628Z,8.26
2018-12-02T02:22:16.588Z,8.22
2018-12-02T02:23:16.578Z,8.29
2018-12-02T02:24:16.569Z,8.22
2018-12-02T02:25:16.555Z,8.26
2018-12-02T02:26:16.566Z,8.12
2018-12-02T02:27:16.533Z,8.23
2018-12-02T02:28:16.521Z,8.20
2018-12-02T02:29:16.512Z,8.10
2018-12-02T02:30:16.501Z,8.12
2018-12-02T02:31:16.514Z,8.20
2018-12-02T02:32:16.482Z,8.19
2018-12-02T02:33:16.466Z,8.10
2018-12-02T02:34:16.459Z,8.12
2018-12-02T02:35:16.443Z,8.11
2018-12-02T02:36:16.454Z,8.15
2018-12-02T02:37:16.423Z,8.15
2018-12-02T02:38:16.415Z,8.20
2018-12-02T02:39:16.398Z,8.22
2018-12-02T02:40:16.390Z,8.19
2018-12-02T02:41:16.402Z,8.15
2018-12-02T02:42:16.368Z,8.08
2018-12-02T02:43:16.356Z,8.07
2018-12-02T02:44:16.345Z,8.22
2018-12-02T02:45:16.342Z,8.16
2018-12-02T02:46:16.346Z,8.15
2018-12-02T02:47:16.316Z,8.22
2018-12-02T02:48:16.300Z,8.18
2018-12-02T02:49:16.287Z,8.15
2018-12-02T02:50:16.278Z,8.20
2018-12-02T02:51:16.291Z,8.26
2018-12-02T02:52:16.255Z,8.26
2018-12-02T02:53:16.244Z,8.22
2018-12-02T02:54:16.234Z,8.26
2018-12-02T02:55:16.229Z,8.25
2018-12-02T02:56:16.277Z,8.34
2018-12-02T02:57:16.204Z,8.36
2018-12-02T02:58:16.188Z,8.28
2018-12-02T02:59:16.185Z,8.33
2018-12-02T03:00:16.178Z,8.38
2018-12-02T03:01:16.195Z,8.29
2018-12-02T03:02:16.145Z,8.30
2018-12-02T03:03:16.142Z,8.30
2018-12-02T03:04:16.150Z,8.28
2018-12-02T03:05:16.134Z,8.34
2018-12-02T03:06:16.123Z,8.30
2018-12-02T03:07:16.091Z,8.40
2018-12-02T03:08:16.089Z,8.40
2018-12-02T03:09:16.068Z,8.33
2018-12-02T03:10:16.057Z,8.28
2018-12-02T03:11:16.069Z,8.26
2018-12-02T03:12:16.041Z,8.29
2018-12-02T03:13:16.022Z,8.23
2018-12-02T03:14:16.013Z,8.20
2018-12-02T03:15:16.000Z,8.29
2018-12-02T03:16:16.027Z,8.26
2018-12-02T03:17:15.981Z,8.19
2018-12-02T03:18:15.968Z,8.33
2018-12-02T03:19:15.957Z,8.34
2018-12-02T03:20:15.945Z,8.38
2018-12-02T03:21:15.962Z,8.25
2018-12-02T03:22:15.923Z,8.30
2018-12-02T03:23:15.912Z,8.30
2018-12-02T03:24:15.905Z,8.37
2018-12-02T03:25:15.893Z,8.30
2018-12-02T03:26:15.903Z,8.26
2018-12-02T03:27:15.867Z,8.29
2018-12-02T03:28:15.858Z,8.23
2018-12-02T03:29:15.849Z,8.18
2018-12-02T03:30:15.852Z,8.22
2018-12-02T03:31:15.849Z,8.05
2018-12-02T03:32:15.813Z,8.18
2018-12-02T03:33:15.806Z,8.19
2018-12-02T03:34:15.798Z,8.15
2018-12-02T03:35:15.781Z,8.19
2018-12-02T03:36:15.794Z,8.08
2018-12-02T03:37:15.760Z,8.12
2018-12-02T03:38:15.749Z,8.10
2018-12-02T03:39:15.737Z,8.05
2018-12-02T03:40:15.734Z,8.11
2018-12-02T03:41:15.735Z,8.11
2018-12-02T03:42:15.703Z,8.16
2018-12-02T03:43:15.689Z,8.20
2018-12-02T03:44:15.681Z,8.22
2018-12-02T03:45:15.670Z,8.08
2018-12-02T03:46:15.683Z,8.10
2018-12-02T03:47:15.647Z,8.15
2018-12-02T03:48:15.638Z,8.15
2018-12-02T03:49:15.626Z,8.10
2018-12-02T03:50:17.816Z,8.10
2018-12-02T03:51:15.628Z,8.01
2018-12-02T03:52:15.591Z,8.07
2018-12-02T03:53:15.584Z,8.05
2018-12-02T03:54:15.597Z,8.04
2018-12-02T03:55:15.559Z,7.98
2018-12-02T03:56:15.579Z,8.00
2018-12-02T03:57:15.537Z,8.05
2018-12-02T03:58:15.525Z,8.04
2018-12-02T03:59:15.520Z,8.02
2018-12-02T04:00:15.506Z,8.01
2018-12-02T04:01:15.494Z,8.04
2018-12-02T04:02:15.508Z,8.02
2018-12-02T04:03:15.470Z,7.97
2018-12-02T04:04:15.459Z,8.07
2018-12-02T04:05:15.450Z,8.04
2018-12-02T04:06:15.438Z,7.97
2018-12-02T04:07:15.452Z,8.04
2018-12-02T04:08:15.415Z,7.90
2018-12-02T04:09:15.407Z,7.93
2018-12-02T04:10:15.392Z,8.02
2018-12-02T04:11:15.386Z,8.05
2018-12-02T04:12:15.394Z,8.04
2018-12-02T04:13:15.359Z,8.05
2018-12-02T04:14:15.358Z,8.04
2018-12-02T04:15:15.338Z,8.01
2018-12-02T04:16:15.328Z,8.04
2018-12-02T04:17:15.340Z,8.04
2018-12-02T04:18:15.306Z,8.04
2018-12-02T04:19:15.293Z,7.98
2018-12-02T04:20:15.346Z,8.01
2018-12-02T04:21:15.273Z,7.90
2018-12-02T04:22:15.285Z,7.95
2018-12-02T04:23:15.249Z,7.90
2018-12-02T04:24:15.239Z,7.95
2018-12-02T04:25:15.226Z,7.93
2018-12-02T04:26:15.217Z,8.05
2018-12-02T04:27:15.229Z,8.00
2018-12-02T04:28:15.194Z,8.05
2018-12-02T04:29:15.190Z,8.00
2018-12-02T04:30:15.174Z,7.97
2018-12-02T04:31:15.163Z,8.04
2018-12-02T04:32:15.174Z,7.95
2018-12-02T04:33:15.142Z,7.95
2018-12-02T04:34:15.128Z,8.04
2018-12-02T04:35:15.119Z,7.97
2018-12-02T04:36:15.111Z,8.00
2018-12-02T04:37:15.121Z,8.07
2018-12-02T04:38:15.095Z,8.07
2018-12-02T04:39:15.072Z,8.04
2018-12-02T04:40:15.062Z,8.01
2018-12-02T04:41:15.049Z,8.10
2018-12-02T04:42:15.070Z,8.15
2018-12-02T04:43:15.031Z,8.15
2018-12-02T04:44:15.018Z,8.08
2018-12-02T04:45:15.008Z,8.02
2018-12-02T04:46:14.996Z,8.07
2018-12-02T04:47:15.011Z,8.02
2018-12-02T04:48:14.974Z,8.11
2018-12-02T04:49:14.961Z,8.11
2018-12-02T04:50:14.951Z,8.12
2018-12-02T04:51:14.940Z,8.15
2018-12-02T04:52:14.954Z,8.16
2018-12-02T04:53:14.918Z,8.15
2018-12-02T04:54:14.907Z,8.15
2018-12-02T04:55:14.898Z,8.16
2018-12-02T04:56:14.884Z,8.11
2018-12-02T04:57:14.895Z,8.08
2018-12-02T04:58:14.861Z,8.07
2018-12-02T04:59:14.850Z,8.16
2018-12-02T05:00:14.845Z,8.08
2018-12-02T05:01:14.835Z,8.12
2018-12-02T05:02:14.843Z,8.10
2018-12-02T05:03:14.806Z,8.19
2018-12-02T05:04:14.795Z,8.18
2018-12-02T05:05:14.785Z,8.10
2018-12-02T05:06:14.772Z,8.15
2018-12-02T05:07:14.794Z,8.12
2018-12-02T05:08:14.751Z,8.19
2018-12-02T05:09:14.746Z,8.11
2018-12-02T05:10:14.728Z,8.07
2018-12-02T05:11:14.725Z,8.05
2018-12-02T05:12:14.737Z,8.16
2018-12-02T05:13:14.702Z,8.12
2018-12-02T05:14:14.686Z,8.12
2018-12-02T05:15:14.674Z,8.12
2018-12-02T05:16:14.662Z,8.22
2018-12-02T05:17:14.675Z,8.16
2018-12-02T05:18:14.656Z,8.10
2018-12-02T05:19:14.639Z,8.15
2018-12-02T05:20:14.618Z,8.12
2018-12-02T05:21:14.621Z,8.22
2018-12-02T05:22:14.620Z,8.10
2018-12-02T05:23:14.585Z,8.07
2018-12-02T05:24:14.573Z,8.08
2018-12-02T05:25:17.801Z,8.15
2018-12-02T05:26:14.553Z,8.08
2018-12-02T05:27:14.565Z,8.16
2018-12-02T05:28:14.531Z,8.16
2018-12-02T05:29:14.521Z,8.28
2018-12-02T05:30:14.510Z,8.23
2018-12-02T05:31:14.497Z,8.23
2018-12-02T05:32:14.510Z,8.23
2018-12-02T05:33:14.475Z,8.15
2018-12-02T05:34:14.463Z,8.12
2018-12-02T05:35:14.455Z,8.15
2018-12-02T05:36:14.453Z,8.11
2018-12-02T05:37:14.456Z,8.12
2018-12-02T05:38:14.419Z,8.26
2018-12-02T05:39:14.409Z,8.23
2018-12-02T05:40:14.400Z,8.20
2018-12-02T05:41:14.386Z,8.15
2018-12-02T05:42:14.401Z,8.28
2018-12-02T05:43:14.371Z,8.33
2018-12-02T05:44:14.357Z,8.23
2018-12-02T05:45:14.343Z,8.25
2018-12-02T05:46:14.335Z,8.26
2018-12-02T05:47:14.356Z,8.28
2018-12-02T05:48:14.314Z,8.25
2018-12-02T05:49:14.299Z,8.25
2018-12-02T05:50:14.310Z,8.25
2018-12-02T05:51:14.281Z,8.33
2018-12-02T05:52:14.302Z,8.34
2018-12-02T05:53:14.256Z,8.29
2018-12-02T05:54:14.246Z,8.19
2018-12-02T05:55:14.235Z,8.23
2018-12-02T05:56:14.224Z,8.29
2018-12-02T05:57:14.212Z,8.34
2018-12-02T05:58:14.232Z,8.25
2018-12-02T05:59:14.189Z,8.22
2018-12-02T06:00:14.185Z,8.23
2018-12-02T06:01:14.169Z,8.26
2018-12-02T06:02:14.157Z,8.23
2018-12-02T06:03:14.169Z,8.29
2018-12-02T06:04:14.137Z,8.23
2018-12-02T06:05:14.132Z,8.19
2018-12-02T06:06:14.116Z,8.22
2018-12-02T06:07:14.104Z,8.33
2018-12-02T06:08:14.116Z,8.28
2018-12-02T06:09:14.086Z,8.29
2018-12-02T06:10:14.073Z,8.34
2018-12-02T06:11:14.058Z,8.25
2018-12-02T06:12:14.050Z,8.20
2018-12-02T06:13:14.077Z,8.26
2018-12-02T06:14:14.024Z,8.33
2018-12-02T06:15:14.033Z,8.19
2018-12-02T06:16:14.002Z,8.20
2018-12-02T06:17:13.990Z,8.29
2018-12-02T06:18:14.007Z,8.26
2018-12-02T06:19:13.975Z,8.29
2018-12-02T06:20:13.957Z,8.22
2018-12-02T06:21:13.959Z,8.28
2018-12-02T06:22:13.936Z,8.23
2018-12-02T06:23:13.947Z,8.19
2018-12-02T06:24:13.915Z,8.26
2018-12-02T06:25:13.906Z,8.18
2018-12-02T06:26:13.892Z,8.25
2018-12-02T06:27:13.888Z,8.20
2018-12-02T06:28:13.905Z,8.20
2018-12-02T06:29:13.858Z,8.25
2018-12-02T06:30:13.848Z,8.25
2018-12-02T06:31:13.838Z,8.26
2018-12-02T06:32:13.826Z,8.20
2018-12-02T06:33:13.842Z,8.20
2018-12-02T06:34:13.803Z,8.30
2018-12-02T06:35:13.805Z,8.30
2018-12-02T06:36:13.784Z,8.29
2018-12-02T06:37:13.770Z,8.33
2018-12-02T06:38:13.781Z,8.22
2018-12-02T06:39:13.753Z,8.29
2018-12-02T06:40:13.738Z,8.36
2018-12-02T06:41:13.738Z,8.29
2018-12-02T06:42:13.714Z,8.36
2018-12-02T06:43:13.732Z,8.29
2018-12-02T06:44:13.692Z,8.28
2018-12-02T06:45:13.683Z,8.43
2018-12-02T06:46:13.680Z,8.33
2018-12-02T06:47:13.664Z,8.33
2018-12-02T06:48:13.675Z,8.29
2018-12-02T06:49:13.658Z,8.34
2018-12-02T06:50:13.648Z,8.37
2018-12-02T06:51:13.623Z,8.37
2018-12-02T06:52:13.606Z,8.28
2018-12-02T06:53:13.649Z,8.29
2018-12-02T06:54:13.608Z,8.30
2018-12-02T06:55:13.577Z,8.34
2018-12-02T06:56:13.566Z,8.34
2018-12-02T06:57:13.556Z,8.34
2018-12-02T06:58:13.564Z,8.37
2018-12-02T06:59:13.527Z,8.36
2018-12-02T07:00:13.520Z,8.29
2018-12-02T07:01:13.506Z,8.29
2018-12-02T07:02:13.496Z,8.44
2018-12-02T07:03:13.507Z,8.40
2018-12-02T07:04:13.472Z,8.43
2018-12-02T07:05:13.462Z,8.45
2018-12-02T07:06:13.453Z,8.47
2018-12-02T07:07:13.439Z,8.43
2018-12-02T07:08:13.452Z,8.38
2018-12-02T07:09:13.418Z,8.36
2018-12-02T07:10:13.426Z,8.47
2018-12-02T07:11:13.408Z,8.41
2018-12-02T07:12:13.385Z,8.38
2018-12-02T07:13:13.396Z,8.41
2018-12-02T07:14:13.365Z,8.43
2018-12-02T07:15:13.355Z,8.45
2018-12-02T07:16:13.342Z,8.37
2018-12-02T07:17:13.333Z,8.38
2018-12-02T07:18:13.349Z,8.41
2018-12-02T07:19:13.317Z,8.40
2018-12-02T07:20:13.296Z,8.45
2018-12-02T07:21:13.293Z,8.44
2018-12-02T07:22:13.284Z,8.45
2018-12-02T07:23:13.287Z,8.47
2018-12-02T07:24:13.254Z,8.44
2018-12-02T07:25:13.259Z,8.48
2018-12-02T07:26:13.232Z,8.48
2018-12-02T07:27:13.219Z,8.58
2018-12-02T07:28:13.243Z,8.61
2018-12-02T07:29:13.199Z,8.62
2018-12-02T07:30:13.188Z,8.59
2018-12-02T07:31:13.174Z,8.58
2018-12-02T07:32:13.172Z,8.62
2018-12-02T07:33:13.158Z,8.66
2018-12-02T07:34:13.167Z,8.53
2018-12-02T07:35:13.129Z,8.48
2018-12-02T07:36:13.121Z,8.55
2018-12-02T07:37:13.112Z,8.53
2018-12-02T07:38:13.098Z,8.55
2018-12-02T07:39:13.111Z,8.62
2018-12-02T07:40:13.078Z,8.59
2018-12-02T07:41:13.065Z,8.65
2018-12-02T07:42:13.069Z,8.61
2018-12-02T07:43:13.044Z,8.65
2018-12-02T07:44:13.059Z,8.65
2018-12-02T07:45:13.022Z,8.63
2018-12-02T07:46:13.010Z,8.59
2018-12-02T07:47:12.999Z,8.65
2018-12-02T07:48:13.001Z,8.59
2018-12-02T07:49:13.033Z,8.65
2018-12-02T07:50:12.979Z,8.70
2018-12-02T07:51:12.957Z,8.59
2018-12-02T07:52:12.946Z,8.61
2018-12-02T07:53:12.938Z,8.62
2018-12-02T07:54:12.950Z,8.61
2018-12-02T07:55:12.912Z,8.63
2018-12-02T07:56:12.901Z,8.68
2018-12-02T07:57:12.891Z,8.68
2018-12-02T07:58:12.878Z,8.65
2018-12-02T07:59:12.891Z,8.59
2018-12-02T08:00:12.857Z,8.66
2018-12-02T08:01:12.846Z,8.62
2018-12-02T08:02:12.837Z,8.61
2018-12-02T08:03:12.828Z,8.59
2018-12-02T08:04:12.845Z,8.66
2018-12-02T08:05:12.803Z,8.74
2018-12-02T08:06:12.792Z,8.71
2018-12-02T08:07:12.786Z,8.58
2018-12-02T08:08:12.770Z,8.73
2018-12-02T08:09:12.782Z,8.74
2018-12-02T08:10:12.748Z,8.74
2018-12-02T08:11:12.742Z,8.79
2018-12-02T08:12:12.726Z,8.71
2018-12-02T08:13:12.715Z,8.79
2018-12-02T08:14:12.738Z,8.74
2018-12-02T08:15:12.692Z,8.76
2018-12-02T08:16:12.683Z,8.70
2018-12-02T08:17:12.672Z,8.79
2018-12-02T08:18:12.658Z,8.66
2018-12-02T08:19:12.654Z,8.71
2018-12-02T08:20:12.670Z,8.70
2018-12-02T08:21:12.627Z,8.73
2018-12-02T08:22:12.614Z,8.84
2018-12-02T08:23:12.603Z,8.83
2018-12-02T08:24:12.594Z,8.89
2018-12-02T08:25:12.605Z,8.92
2018-12-02T08:26:12.572Z,8.94
2018-12-02T08:27:12.562Z,8.83
2018-12-02T08:28:12.549Z,8.94
2018-12-02T08:29:12.542Z,8.89
2018-12-02T08:30:12.552Z,8.91
2018-12-02T08:31:12.517Z,8.94
2018-12-02T08:32:12.522Z,8.91
2018-12-02T08:33:12.498Z,8.89
2018-12-02T08:34:12.491Z,9.01
2018-12-02T08:35:12.509Z,9.04
2018-12-02T08:36:12.466Z,9.02
2018-12-02T08:37:12.454Z,9.10
2018-12-02T08:38:12.442Z,9.10
2018-12-02T08:39:12.430Z,9.14
2018-12-02T08:40:12.427Z,9.08
2018-12-02T08:41:12.432Z,9.14
2018-12-02T08:42:12.397Z,9.15
2018-12-02T08:43:12.386Z,9.23
2018-12-02T08:44:12.378Z,9.18
2018-12-02T08:45:12.371Z,9.14
2018-12-02T08:46:12.405Z,9.14
2018-12-02T08:47:12.343Z,9.15
2018-12-02T08:48:12.331Z,9.17
2018-12-02T08:49:12.321Z,9.21
2018-12-02T08:50:12.309Z,9.23
2018-12-02T08:51:12.324Z,9.20
2018-12-02T08:52:12.288Z,9.18
2018-12-02T08:53:12.276Z,9.18
2018-12-02T08:54:12.269Z,9.17
2018-12-02T08:55:12.257Z,9.13
2018-12-02T08:56:12.267Z,9.23
2018-12-02T08:57:12.241Z,9.14
2018-12-02T08:58:12.224Z,9.17
2018-12-02T08:59:12.219Z,9.21
2018-12-02T09:00:12.201Z,9.20
2018-12-02T09:01:12.216Z,9.20
2018-12-02T09:02:12.180Z,9.18
2018-12-02T09:03:12.169Z,9.23
2018-12-02T09:04:12.172Z,9.24
2018-12-02T09:05:12.147Z,9.33
2018-12-02T09:06:12.160Z,9.20
2018-12-02T09:07:12.124Z,9.28
2018-12-02T09:08:12.114Z,9.29
2018-12-02T09:09:12.103Z,9.32
2018-12-02T09:10:12.094Z,9.26
2018-12-02T09:11:12.104Z,9.18
2018-12-02T09:12:12.071Z,9.28
2018-12-02T09:13:12.060Z,9.31
2018-12-02T09:14:12.049Z,9.31
2018-12-02T09:15:12.043Z,9.28
2018-12-02T09:16:12.062Z,9.35
2018-12-02T09:17:12.017Z,9.28
2018-12-02T09:18:12.004Z,9.35
2018-12-02T09:19:11.994Z,9.31
2018-12-02T09:20:11.984Z,9.33
2018-12-02T09:21:11.971Z,9.26
2018-12-02T09:22:11.984Z,9.26
2018-12-02T09:23:13.080Z,9.28
2018-12-02T09:24:11.941Z,9.29
2018-12-02T09:25:11.931Z,9.29
2018-12-02T09:26:11.921Z,9.32
2018-12-02T09:27:11.930Z,9.26
2018-12-02T09:28:11.905Z,9.21
2018-12-02T09:29:11.887Z,9.39
2018-12-02T09:30:11.873Z,9.36
2018-12-02T09:31:11.901Z,9.32
2018-12-02T09:32:11.875Z,9.35
2018-12-02T09:33:11.847Z,9.32
2018-12-02T09:34:11.830Z,9.31
2018-12-02T09:35:11.820Z,9.33
2018-12-02T09:36:11.809Z,9.38
2018-12-02T09:37:11.823Z,9.43
2018-12-02T09:38:11.786Z,9.38
2018-12-02T09:39:11.777Z,9.38
2018-12-02T09:40:11.767Z,9.39
2018-12-02T09:41:11.755Z,9.39
2018-12-02T09:42:11.768Z,9.39
2018-12-02T09:43:11.733Z,9.42
2018-12-02T09:44:11.723Z,9.43
2018-12-02T09:45:11.714Z,9.56
2018-12-02T09:46:11.701Z,9.47
2018-12-02T09:47:11.711Z,9.56
2018-12-02T09:48:11.680Z,9.57
2018-12-02T09:49:11.670Z,9.60
2018-12-02T09:50:11.656Z,9.53
2018-12-02T09:51:11.645Z,9.58
2018-12-02T09:52:11.663Z,9.51
2018-12-02T09:53:11.624Z,9.54
2018-12-02T09:54:11.613Z,9.57
2018-12-02T09:55:11.602Z,9.66
2018-12-02T09:56:11.594Z,9.60
2018-12-02T09:57:11.579Z,9.54
2018-12-02T09:58:11.602Z,9.53
2018-12-02T09:59:11.566Z,9.64
2018-12-02T10:00:11.549Z,9.61
2018-12-02T10:01:11.535Z,9.64
2018-12-02T10:02:12.201Z,9.68
2018-12-02T10:03:11.543Z,9.68
2018-12-02T10:04:11.503Z,9.65
2018-12-02T10:05:11.503Z,9.69
2018-12-02T10:06:11.488Z,9.71
2018-12-02T10:07:11.469Z,9.69
2018-12-02T10:08:11.495Z,9.68
2018-12-02T10:09:11.454Z,9.76
2018-12-02T10:10:11.439Z,9.79
2018-12-02T10:11:11.442Z,9.83
2018-12-02T10:12:11.413Z,9.81
2018-12-02T10:13:11.434Z,9.84
2018-12-02T10:14:11.392Z,9.79
2018-12-02T10:15:11.381Z,9.86
2018-12-02T10:16:15.598Z,9.84
2018-12-02T10:17:12.357Z,9.84
2018-12-02T10:18:11.418Z,9.87
2018-12-02T10:19:11.337Z,9.83
2018-12-02T10:20:11.325Z,9.89
2018-12-02T10:21:11.315Z,9.89
2018-12-02T10:22:11.309Z,9.90
2018-12-02T10:23:11.318Z,9.89
2018-12-02T10:24:11.282Z,9.91
2018-12-02T10:25:11.270Z,10.04
2018-12-02T10:26:11.258Z,10.01
2018-12-02T10:27:11.248Z,10.04
2018-12-02T10:28:11.261Z,10.05
2018-12-02T10:29:11.225Z,10.02
2018-12-02T10:30:11.217Z,9.99
2018-12-02T10:31:11.206Z,10.14
2018-12-02T10:32:12.407Z,10.01
2018-12-02T10:33:11.209Z,10.07
2018-12-02T10:34:11.173Z,10.04
2018-12-02T10:35:11.169Z,10.11
2018-12-02T10:36:11.149Z,10.07
2018-12-02T10:37:11.137Z,10.08
2018-12-02T10:38:11.155Z,10.01
2018-12-02T10:39:11.117Z,10.09
2018-12-02T10:40:11.104Z,10.14
2018-12-02T10:41:11.097Z,10.12
2018-12-02T10:42:11.093Z,10.11
2018-12-02T10:43:11.103Z,10.14
2018-12-02T10:44:11.059Z,10.15
2018-12-02T10:45:11.051Z,10.07
2018-12-02T10:46:11.043Z,10.14
2018-12-02T10:47:11.026Z,10.14
2018-12-02T10:48:11.015Z,10.18
2018-12-02T10:49:11.027Z,10.26
2018-12-02T10:50:10.992Z,10.23
2018-12-02T10:51:10.982Z,10.27
2018-12-02T10:52:10.972Z,10.18
2018-12-02T10:53:10.959Z,10.27
2018-12-02T10:54:10.973Z,10.27
2018-12-02T10:55:10.948Z,10.33
2018-12-02T10:56:10.935Z,10.23
2018-12-02T10:57:10.918Z,10.20
2018-12-02T10:58:10.904Z,10.30
2018-12-02T10:59:10.916Z,10.22
2018-12-02T11:00:10.882Z,10.26
2018-12-02T11:01:10.876Z,10.42
2018-12-02T11:02:10.860Z,10.32
2018-12-02T11:03:10.855Z,10.36
2018-12-02T11:04:10.861Z,10.44
2018-12-02T11:05:10.828Z,10.45
2018-12-02T11:06:10.820Z,10.60
2018-12-02T11:07:10.805Z,10.59
2018-12-02T11:08:10.794Z,10.60
2018-12-02T11:09:10.806Z,10.51
2018-12-02T11:10:10.771Z,10.59
2018-12-02T11:11:10.760Z,10.55
2018-12-02T11:12:10.751Z,10.64
2018-12-02T11:13:10.736Z,10.64
2018-12-02T11:14:10.753Z,10.64
2018-12-02T11:15:10.718Z,10.68
2018-12-02T11:16:10.707Z,10.67
2018-12-02T11:17:10.694Z,10.59
2018-12-02T11:18:10.696Z,10.71
2018-12-02T11:19:10.695Z,10.63
2018-12-02T11:20:10.661Z,10.64
2018-12-02T11:21:10.649Z,10.70
2018-12-02T11:22:10.638Z,10.74
2018-12-02T11:23:10.661Z,10.74
2018-12-02T11:24:10.654Z,10.76
2018-12-02T11:25:10.605Z,10.71
2018-12-02T11:26:10.599Z,10.76
2018-12-02T11:27:10.581Z,10.73
2018-12-02T11:28:10.573Z,10.66
2018-12-02T11:29:10.566Z,10.73
2018-12-02T11:30:10.573Z,10.73
2018-12-02T11:31:10.538Z,10.74
2018-12-02T11:32:10.527Z,10.81
2018-12-02T11:33:10.517Z,10.78
2018-12-02T11:34:10.505Z,10.84
2018-12-02T11:35:10.519Z,10.78
2018-12-02T11:36:10.488Z,10.85
2018-12-02T11:37:10.471Z,10.89
2018-12-02T11:38:10.466Z,10.97
2018-12-02T11:39:10.470Z,10.91
2018-12-02T11:40:10.505Z,11.02
2018-12-02T11:41:10.432Z,11.02
2018-12-02T11:42:10.417Z,11.04
2018-12-02T11:43:10.419Z,11.04
2018-12-02T11:44:10.398Z,11.03
2018-12-02T11:45:10.410Z,11.04
2018-12-02T11:46:10.379Z,10.97
2018-12-02T11:47:10.365Z,11.04
2018-12-02T11:48:10.349Z,11.07
2018-12-02T11:49:10.339Z,11.09
2018-12-02T11:50:10.362Z,11.22
2018-12-02T11:51:10.316Z,11.21
2018-12-02T11:52:10.306Z,11.15
2018-12-02T11:53:10.296Z,11.17
2018-12-02T11:54:10.286Z,11.19
2018-12-02T11:55:10.297Z,11.18
2018-12-02T11:56:10.271Z,11.19
2018-12-02T11:57:10.267Z,11.17
2018-12-02T11:58:10.238Z,11.15
2018-12-02T11:59:10.228Z,11.24
2018-12-02T12:00:10.248Z,11.25
2018-12-02T12:01:10.210Z,11.17
2018-12-02T12:02:10.202Z,11.22
2018-12-02T12:03:10.188Z,11.22
2018-12-02T12:04:10.172Z,11.28
2018-12-02T12:05:10.185Z,11.28
2018-12-02T12:06:10.151Z,11.18
2018-12-02T12:07:10.141Z,11.14
2018-12-02T12:08:10.128Z,11.18
2018-12-02T12:09:10.116Z,11.17
2018-12-02T12:10:10.141Z,11.19
2018-12-02T12:11:10.100Z,11.36
2018-12-02T12:12:10.083Z,11.25
2018-12-02T12:13:10.072Z,11.19
2018-12-02T12:14:10.060Z,11.15
2018-12-02T12:15:10.051Z,11.22
2018-12-02T12:16:10.078Z,11.22
2018-12-02T12:17:10.051Z,11.19
2018-12-02T12:18:10.016Z,11.29
2018-12-02T12:19:10.020Z,11.25
2018-12-02T12:20:09.996Z,11.29
2018-12-02T12:21:10.005Z,11.32
2018-12-02T12:22:09.973Z,11.28
2018-12-02T12:23:09.963Z,11.28
2018-12-02T12:24:09.952Z,11.28
2018-12-02T12:25:09.948Z,11.36
2018-12-02T12:26:09.960Z,11.39
2018-12-02T12:27:09.920Z,11.40
2018-12-02T12:28:09.905Z,11.39
2018-12-02T12:29:09.894Z,11.43
2018-12-02T12:30:09.895Z,11.44
2018-12-02T12:31:09.895Z,11.47
2018-12-02T12:32:09.864Z,11.46
2018-12-02T12:33:09.860Z,11.42
2018-12-02T12:34:09.840Z,11.43
2018-12-02T12:35:09.828Z,11.47
2018-12-02T12:36:09.840Z,11.39
2018-12-02T12:37:09.804Z,11.28
2018-12-02T12:38:09.794Z,11.25
2018-12-02T12:39:09.794Z,11.36
2018-12-02T12:40:09.780Z,11.36
2018-12-02T12:41:09.783Z,11.28
2018-12-02T12:42:09.748Z,11.35
2018-12-02T12:43:09.739Z,11.36
2018-12-02T12:44:09.730Z,11.36
2018-12-02T12:45:09.716Z,11.39
2018-12-02T12:46:09.728Z,11.42
2018-12-02T12:47:09.692Z,11.51
2018-12-02T12:48:09.683Z,11.51
2018-12-02T12:49:09.671Z,11.47
2018-12-02T12:50:09.660Z,11.60
2018-12-02T12:51:09.671Z,11.58
2018-12-02T12:52:09.641Z,11.75
2018-12-02T12:53:09.626Z,11.67
2018-12-02T12:54:09.616Z,11.75
2018-12-02T12:55:09.605Z,11.86
2018-12-02T12:56:09.624Z,12.01
2018-12-02T12:57:09.587Z,11.96
2018-12-02T12:58:09.573Z,11.98
2018-12-02T12:59:09.560Z,11.95
2018-12-02T13:00:09.559Z,12.04
2018-12-02T13:01:09.572Z,11.94
2018-12-02T13:02:09.528Z,12.04
2018-12-02T13:03:09.515Z,11.96
2018-12-02T13:04:09.504Z,11.99
2018-12-02T13:05:09.493Z,11.98
2018-12-02T13:06:09.485Z,11.95
2018-12-02T13:07:09.495Z,12.01
2018-12-02T13:08:09.461Z,11.98
2018-12-02T13:09:09.449Z,11.96
2018-12-02T13:10:09.438Z,11.88
2018-12-02T13:11:09.426Z,11.96
2018-12-02T13:12:09.444Z,12.01